createdAt,value
2019-04-27T00:01:10.602Z,2.60
2019-04-27T00:03:41.379Z,3.23
2019-04-27T00:06:08.673Z,2.47
2019-04-27T00:08:40.707Z,3.70
2019-04-27T00:11:13.652Z,7.50
2019-04-27T00:13:42.326Z,6.90
2019-04-27T00:16:17.618Z,7.47
2019-04-27T00:18:49.733Z,3.47
2019-04-27T00:21:29.576Z,3.73
2019-04-27T00:23:56.843Z,3.00
2019-04-27T00:26:24.084Z,4.13
2019-04-27T00:28:51.350Z,4.20
2019-04-27T00:31:18.610Z,2.77
2019-04-27T00:33:45.956Z,2.10
2019-04-27T00:36:17.778Z,8.10
2019-04-27T00:38:49.770Z,2.43
2019-04-27T00:41:19.240Z,2.13
2019-04-27T00:43:46.667Z,2.40
2019-04-27T00:46:14.049Z,6.20
2019-04-27T00:48:43.158Z,3.77
2019-04-27T00:51:10.351Z,8.40
2019-04-27T00:53:37.618Z,4.07
2019-04-27T00:56:25.295Z,3.23
2019-04-27T00:59:03.499Z,2.50
2019-04-27T01:01:38.147Z,2.67
2019-04-27T01:04:10.007Z,3.23
2019-04-27T01:06:37.264Z,3.70
2019-04-27T01:09:05.958Z,4.80
2019-04-27T01:11:33.403Z,2.90
2019-04-27T01:14:00.756Z,2.17
2019-04-27T01:16:29.336Z,3.00
2019-04-27T01:18:56.642Z,4.03
2019-04-27T01:21:23.887Z,3.00
2019-04-27T01:23:51.162Z,3.40
2019-04-27T01:26:22.746Z,3.37
2019-04-27T01:28:59.094Z,3.30
2019-04-27T01:31:26.485Z,2.57
2019-04-27T01:33:53.738Z,2.40
2019-04-27T01:36:20.997Z,11.77
2019-04-27T01:38:49.659Z,3.77
2019-04-27T01:41:19.029Z,5.70
2019-04-27T01:43:46.229Z,1.93
2019-04-27T01:46:13.495Z,2.37
2019-04-27T01:48:40.742Z,2.57
2019-04-27T01:51:09.208Z,2.37
2019-04-27T01:53:36.707Z,3.00
2019-04-27T01:56:04.039Z,2.00
2019-04-27T01:58:31.278Z,2.90
2019-04-27T02:01:18.707Z,4.23
2019-04-27T02:03:48.905Z,3.70
2019-04-27T02:06:16.222Z,2.60
2019-04-27T02:08:43.608Z,2.43
2019-04-27T02:11:11.094Z,1.87
2019-04-27T02:13:38.844Z,2.67
2019-04-27T02:16:06.206Z,2.43
2019-04-27T02:18:37.495Z,2.07
2019-04-27T02:21:02.717Z,4.53
2019-04-27T02:23:29.957Z,2.17
2019-04-27T02:25:58.575Z,4.03
2019-04-27T02:28:30.142Z,2.80
2019-04-27T02:31:05.760Z,3.23
2019-04-27T02:33:34.638Z,1.90
2019-04-27T02:36:01.915Z,4.30
2019-04-27T02:38:30.503Z,2.60
2019-04-27T02:40:59.802Z,2.97
2019-04-27T02:43:29.659Z,2.70
2019-04-27T02:45:57.162Z,1.93
2019-04-27T02:48:24.467Z,2.27
2019-04-27T02:50:53.367Z,2.50
2019-04-27T02:53:22.246Z,2.00
2019-04-27T02:55:50.036Z,3.13
2019-04-27T02:58:21.236Z,2.43
2019-04-27T03:00:46.766Z,2.00
2019-04-27T03:03:14.684Z,2.70
2019-04-27T03:05:42.007Z,2.17
2019-04-27T03:08:10.207Z,12.10
2019-04-27T03:10:39.735Z,4.17
2019-04-27T03:13:14.345Z,4.53
2019-04-27T03:15:46.263Z,2.20
2019-04-27T03:18:19.359Z,2.93
2019-04-27T03:20:56.949Z,2.03
2019-04-27T03:23:24.562Z,5.53
2019-04-27T03:26:02.297Z,1.97
2019-04-27T03:28:29.937Z,2.10
2019-04-27T03:31:01.995Z,4.70
2019-04-27T03:33:26.855Z,2.00
2019-04-27T03:35:54.432Z,2.50
2019-04-27T03:38:21.772Z,2.00
2019-04-27T03:40:50.615Z,2.80
2019-04-27T03:43:20.119Z,2.60
2019-04-27T03:45:51.767Z,2.60
2019-04-27T03:48:16.489Z,2.50
2019-04-27T03:50:50.420Z,2.50
2019-04-27T03:53:22.672Z,2.53
2019-04-27T03:55:55.005Z,2.23
2019-04-27T03:58:33.174Z,3.37
2019-04-27T04:01:00.499Z,9.27
2019-04-27T04:03:29.737Z,2.90
2019-04-27T04:05:56.871Z,2.20
2019-04-27T04:08:24.136Z,3.23
2019-04-27T04:11:11.078Z,4.67
2019-04-27T04:13:49.507Z,3.03
2019-04-27T04:16:34.846Z,3.73
2019-04-27T04:19:03.746Z,2.50
2019-04-27T04:21:31.054Z,3.67
2019-04-27T04:24:00.537Z,2.63
2019-04-27T04:26:29.479Z,3.00
2019-04-27T04:28:56.411Z,4.87
2019-04-27T04:31:23.658Z,3.00
2019-04-27T04:33:50.984Z,2.80
2019-04-27T04:36:20.188Z,4.83
2019-04-27T04:38:47.223Z,3.00
2019-04-27T04:41:19.996Z,3.23
2019-04-27T04:43:49.128Z,5.67
2019-04-27T04:46:29.956Z,4.23
2019-04-27T04:49:00.029Z,10.97
2019-04-27T04:51:26.531Z,3.20
2019-04-27T04:53:53.800Z,8.30
2019-04-27T04:56:21.043Z,5.07
2019-04-27T04:58:49.727Z,3.20
2019-04-27T05:01:17.137Z,4.87
2019-04-27T05:03:44.393Z,3.10
2019-04-27T05:06:11.643Z,3.60
2019-04-27T05:08:39.344Z,6.40
2019-04-27T05:11:06.737Z,3.10
2019-04-27T05:13:34.270Z,10.50
2019-04-27T05:16:01.519Z,2.50
2019-04-27T05:18:29.427Z,3.00
2019-04-27T05:21:08.747Z,4.53
2019-04-27T05:23:36.396Z,4.20
2019-04-27T05:26:03.895Z,5.83
2019-04-27T05:28:31.412Z,4.70
2019-04-27T05:31:00.379Z,3.73
2019-04-27T05:33:28.586Z,3.67
2019-04-27T05:35:55.922Z,3.57
2019-04-27T05:38:23.193Z,4.73
2019-04-27T05:40:50.434Z,5.20
2019-04-27T05:43:19.478Z,4.53
2019-04-27T05:45:53.163Z,4.07
2019-04-27T05:48:27.342Z,5.00
2019-04-27T05:50:51.443Z,4.10
2019-04-27T05:53:18.974Z,4.37
2019-04-27T05:55:46.291Z,7.63
2019-04-27T05:58:13.784Z,4.03
2019-04-27T06:00:41.044Z,4.47
2019-04-27T06:03:09.108Z,8.20
2019-04-27T06:05:36.426Z,4.73
2019-04-27T06:08:03.995Z,4.17
2019-04-27T06:10:31.258Z,7.13
2019-04-27T06:12:59.797Z,4.67
2019-04-27T06:15:28.376Z,4.30
2019-04-27T06:17:56.373Z,3.80
2019-04-27T06:20:23.634Z,3.80
2019-04-27T06:22:50.955Z,3.27
2019-04-27T06:25:21.188Z,3.87
2019-04-27T06:27:47.180Z,4.00
2019-04-27T06:30:14.868Z,3.20
2019-04-27T06:32:42.379Z,3.90
2019-04-27T06:35:12.221Z,3.53
2019-04-27T06:37:38.997Z,4.30
2019-04-27T06:40:06.639Z,3.57
2019-04-27T06:42:33.882Z,6.60
2019-04-27T06:45:01.399Z,6.27
2019-04-27T06:47:29.501Z,5.30
2019-04-27T06:49:58.551Z,5.00
2019-04-27T06:52:25.987Z,8.23
2019-04-27T06:54:53.249Z,9.77
2019-04-27T06:57:20.750Z,7.07
2019-04-27T06:59:48.412Z,10.97
2019-04-27T07:02:18.918Z,7.50
2019-04-27T07:04:46.034Z,9.93
2019-04-27T07:07:13.390Z,8.47
2019-04-27T07:09:40.919Z,9.87
2019-04-27T07:12:08.984Z,8.67
2019-04-27T07:14:36.369Z,10.30
2019-04-27T07:17:03.792Z,8.90
2019-04-27T07:19:31.033Z,7.73
2019-04-27T07:21:59.393Z,8.67
2019-04-27T07:24:26.911Z,8.90
2019-04-27T07:26:54.175Z,8.97
2019-04-27T07:29:23.161Z,9.07
2019-04-27T07:31:50.559Z,7.97
2019-04-27T07:34:19.002Z,9.27
2019-04-27T07:36:46.346Z,9.00
2019-04-27T07:39:13.595Z,9.40
2019-04-27T07:41:41.118Z,9.97
2019-04-27T07:44:12.932Z,10.53
2019-04-27T07:46:40.198Z,9.77
2019-04-27T07:49:09.218Z,11.00
2019-04-27T07:51:36.698Z,9.43
2019-04-27T07:54:04.086Z,10.83
2019-04-27T07:56:31.610Z,8.33
2019-04-27T07:58:59.545Z,20.63
2019-04-27T08:01:27.167Z,8.33
2019-04-27T08:03:54.670Z,11.77
2019-04-27T08:06:21.946Z,12.00
2019-04-27T08:08:49.343Z,12.90
2019-04-27T08:11:16.657Z,13.73
2019-04-27T08:13:44.162Z,11.37
2019-04-27T08:16:11.693Z,14.30
2019-04-27T08:18:39.604Z,13.60
2019-04-27T08:21:08.811Z,9.90
2019-04-27T08:23:36.262Z,11.20
2019-04-27T08:26:05.169Z,16.33
2019-04-27T08:28:38.551Z,10.00
2019-04-27T08:31:13.360Z,12.37
2019-04-27T08:33:40.607Z,12.13
2019-04-27T08:36:08.991Z,14.17
2019-04-27T08:38:36.410Z,11.07
2019-04-27T08:41:03.677Z,14.97
2019-04-27T08:43:30.934Z,12.03
2019-04-27T08:45:58.913Z,11.07
2019-04-27T08:48:34.671Z,12.23
2019-04-27T08:50:56.174Z,12.13
2019-04-27T08:53:23.426Z,13.30
2019-04-27T08:55:52.758Z,12.37
2019-04-27T08:58:21.262Z,14.43
2019-04-27T09:00:49.156Z,11.97
2019-04-27T09:03:16.731Z,10.40
2019-04-27T09:05:43.978Z,13.40
2019-04-27T09:08:19.048Z,13.23
2019-04-27T09:10:58.900Z,12.13
2019-04-27T09:13:29.224Z,12.90
2019-04-27T09:16:01.463Z,16.93
2019-04-27T09:18:33.202Z,11.53
2019-04-27T09:21:06.771Z,12.73
2019-04-27T09:23:34.037Z,11.93
2019-04-27T09:26:01.531Z,9.83
2019-04-27T09:28:29.482Z,14.13
2019-04-27T09:30:58.252Z,15.87
2019-04-27T09:33:26.073Z,11.80
2019-04-27T09:35:53.326Z,10.70
2019-04-27T09:38:20.590Z,8.80
2019-04-27T09:40:48.098Z,14.97
2019-04-27T09:43:15.820Z,9.80
2019-04-27T09:45:43.414Z,12.80
2019-04-27T09:48:10.665Z,10.20
2019-04-27T09:50:38.192Z,10.70
2019-04-27T09:53:06.357Z,10.70
2019-04-27T09:55:36.710Z,12.73
2019-04-27T09:58:05.654Z,10.50
2019-04-27T10:00:33.102Z,10.80
2019-04-27T10:03:00.689Z,8.93
2019-04-27T10:05:28.025Z,11.97
2019-04-27T10:07:56.979Z,11.80
2019-04-27T10:10:24.321Z,14.43
2019-04-27T10:12:51.565Z,12.97
2019-04-27T10:15:18.834Z,11.10
2019-04-27T10:17:46.347Z,13.40
2019-04-27T10:20:13.614Z,12.50
2019-04-27T10:22:43.481Z,11.37
2019-04-27T10:25:11.814Z,9.90
2019-04-27T10:27:39.053Z,11.00
2019-04-27T10:30:09.262Z,12.23
2019-04-27T10:32:36.499Z,8.60
2019-04-27T10:35:05.486Z,8.43
2019-04-27T10:37:33.890Z,10.03
2019-04-27T10:40:01.592Z,9.93
2019-04-27T10:42:29.083Z,8.70
2019-04-27T10:44:56.615Z,6.67
2019-04-27T10:47:25.938Z,8.47
2019-04-27T10:49:53.094Z,8.40
2019-04-27T10:52:20.338Z,5.73
2019-04-27T10:54:47.920Z,5.70
2019-04-27T10:57:15.871Z,10.60
2019-04-27T10:59:43.199Z,5.20
2019-04-27T11:02:10.695Z,4.13
2019-04-27T11:04:42.507Z,5.00
2019-04-27T11:07:11.410Z,3.30
2019-04-27T11:09:38.654Z,2.90
2019-04-27T11:12:06.935Z,2.10
2019-04-27T11:14:34.550Z,4.27
2019-04-27T11:17:01.819Z,3.73
2019-04-27T11:19:29.067Z,5.27
2019-04-27T11:21:56.326Z,3.20
2019-04-27T11:24:23.591Z,2.93
2019-04-27T11:26:50.836Z,4.37
2019-04-27T11:29:18.095Z,6.90
2019-04-27T11:31:46.586Z,5.47
2019-04-27T11:34:13.981Z,7.30
2019-04-27T11:36:48.852Z,4.30
2019-04-27T11:39:18.678Z,2.60
2019-04-27T11:41:45.069Z,3.57
2019-04-27T11:44:12.315Z,2.97
2019-04-27T11:46:39.759Z,5.40
2019-04-27T11:49:07.013Z,3.40
2019-04-27T11:51:34.273Z,4.20
2019-04-27T11:54:01.538Z,4.20
2019-04-27T11:56:28.786Z,3.33
2019-04-27T11:58:56.136Z,3.33
2019-04-27T12:01:23.495Z,2.20
2019-04-27T12:03:50.739Z,3.73
2019-04-27T12:06:18.010Z,2.60
2019-04-27T12:08:45.776Z,1.73
2019-04-27T12:11:13.362Z,2.70
2019-04-27T12:13:40.605Z,2.80
2019-04-27T12:16:07.882Z,2.30
2019-04-27T12:18:35.129Z,3.33
2019-04-27T12:21:02.643Z,2.57
2019-04-27T12:23:35.923Z,2.07
2019-04-27T12:25:59.126Z,2.40
2019-04-27T12:28:30.958Z,1.27
2019-04-27T12:31:17.869Z,1.30
2019-04-27T12:33:46.047Z,1.27
2019-04-27T12:36:13.430Z,2.10
2019-04-27T12:38:40.667Z,1.83
2019-04-27T12:41:07.931Z,1.20
2019-04-27T12:43:35.569Z,1.70
2019-04-27T12:46:05.835Z,3.90
2019-04-27T12:48:33.430Z,2.90
2019-04-27T12:51:00.673Z,1.03
2019-04-27T12:53:48.263Z,1.87
2019-04-27T12:56:14.489Z,4.13
2019-04-27T12:58:47.540Z,1.10
2019-04-27T13:01:16.487Z,2.00
2019-04-27T13:03:43.752Z,3.73
2019-04-27T13:06:10.989Z,2.33
2019-04-27T13:08:38.506Z,2.90
2019-04-27T13:11:06.158Z,3.27
2019-04-27T13:13:33.529Z,5.67
2019-04-27T13:16:00.783Z,3.20
2019-04-27T13:18:28.305Z,4.67
2019-04-27T13:20:55.550Z,2.63
2019-04-27T13:23:22.826Z,3.03
2019-04-27T13:25:50.074Z,4.00
2019-04-27T13:28:18.673Z,1.50
2019-04-27T13:30:47.478Z,3.13
2019-04-27T13:33:17.274Z,2.00
2019-04-27T13:35:43.858Z,2.20
2019-04-27T13:38:11.122Z,2.33
2019-04-27T13:40:41.451Z,3.73
2019-04-27T13:43:10.609Z,4.00
2019-04-27T13:45:51.179Z,3.20
2019-04-27T13:48:36.469Z,2.90
2019-04-27T13:51:08.187Z,6.13
2019-04-27T13:53:36.806Z,4.03
2019-04-27T13:56:17.370Z,6.90
2019-04-27T13:58:45.296Z,3.97
2019-04-27T14:01:12.538Z,4.77
2019-04-27T14:03:40.269Z,6.83
2019-04-27T14:06:08.113Z,4.20
2019-04-27T14:08:35.453Z,5.70
2019-04-27T14:11:02.708Z,5.67
2019-04-27T14:13:29.974Z,3.93
2019-04-27T14:15:57.212Z,7.43
2019-04-27T14:18:24.481Z,5.50
2019-04-27T14:20:51.723Z,7.63
2019-04-27T14:23:20.622Z,5.27
2019-04-27T14:25:47.878Z,3.60
2019-04-27T14:28:15.414Z,8.17
2019-04-27T14:30:42.658Z,6.13
2019-04-27T14:33:10.171Z,3.90
2019-04-27T14:35:37.434Z,7.37
2019-04-27T14:38:04.757Z,5.17
2019-04-27T14:40:32.037Z,5.77
2019-04-27T14:42:59.334Z,5.27
2019-04-27T14:45:28.531Z,3.97
2019-04-27T14:47:55.826Z,6.20
2019-04-27T14:50:23.094Z,7.23
2019-04-27T14:52:50.606Z,14.33
2019-04-27T14:55:18.738Z,6.37
2019-04-27T14:57:45.982Z,4.73
2019-04-27T15:00:14.954Z,4.37
2019-04-27T15:02:42.203Z,6.47
2019-04-27T15:05:09.734Z,2.97
2019-04-27T15:07:36.977Z,5.90
2019-04-27T15:10:05.485Z,3.20
2019-04-27T15:12:32.797Z,3.30
2019-04-27T15:15:01.502Z,7.03
2019-04-27T15:17:29.598Z,3.40
2019-04-27T15:19:58.639Z,7.23
2019-04-27T15:22:27.534Z,6.57
2019-04-27T15:25:06.427Z,4.97
2019-04-27T15:27:25.402Z,8.90
2019-04-27T15:29:55.909Z,4.30
2019-04-27T15:32:29.206Z,4.20
2019-04-27T15:35:05.351Z,4.40
2019-04-27T15:37:35.409Z,5.77
2019-04-27T15:40:12.715Z,1.90
2019-04-27T15:42:51.169Z,4.27
2019-04-27T15:45:15.868Z,3.60
2019-04-27T15:47:42.412Z,2.30
2019-04-27T15:50:12.110Z,3.13
2019-04-27T15:52:39.679Z,5.07
2019-04-27T15:55:17.799Z,3.10
2019-04-27T15:57:35.969Z,5.00
2019-04-27T16:00:04.973Z,3.37
2019-04-27T16:02:32.211Z,4.47
2019-04-27T16:04:59.454Z,3.57
2019-04-27T16:07:30.390Z,4.27
2019-04-27T16:09:59.133Z,3.20
2019-04-27T16:12:25.181Z,2.40
2019-04-27T16:14:52.671Z,3.93
2019-04-27T16:17:20.203Z,4.73
2019-04-27T16:19:50.238Z,2.13
2019-04-27T16:22:18.273Z,3.97
2019-04-27T16:24:49.491Z,3.27
2019-04-27T16:27:14.756Z,3.17
2019-04-27T16:29:42.147Z,4.80
2019-04-27T16:32:11.343Z,3.30
2019-04-27T16:34:41.232Z,4.63
2019-04-27T16:37:09.688Z,4.00
2019-04-27T16:39:39.644Z,3.93
2019-04-27T16:42:09.679Z,3.43
2019-04-27T16:44:35.268Z,3.70
2019-04-27T16:47:02.786Z,3.90
2019-04-27T16:49:30.028Z,2.30
2019-04-27T16:51:58.893Z,3.50
2019-04-27T16:54:28.154Z,3.57
2019-04-27T16:57:02.443Z,4.80
2019-04-27T16:59:40.718Z,2.10
2019-04-27T17:01:53.766Z,2.70
2019-04-27T17:04:21.005Z,4.97
2019-04-27T17:06:49.498Z,4.20
2019-04-27T17:09:18.724Z,3.10
2019-04-27T17:11:50.131Z,5.30
2019-04-27T17:14:26.568Z,6.13
2019-04-27T17:17:03.685Z,5.60
2019-04-27T17:19:35.691Z,5.13
2019-04-27T17:22:01.657Z,5.37
2019-04-27T17:24:37.502Z,2.90
2019-04-27T17:27:02.579Z,4.10
2019-04-27T17:29:29.893Z,9.00
2019-04-27T17:31:59.921Z,4.40
2019-04-27T17:34:28.580Z,5.17
2019-04-27T17:36:56.677Z,4.43
2019-04-27T17:39:24.823Z,4.67
2019-04-27T17:41:52.876Z,3.40
2019-04-27T17:44:23.095Z,2.40
2019-04-27T17:46:51.175Z,3.53
2019-04-27T17:49:18.926Z,2.80
2019-04-27T17:51:46.250Z,5.37
2019-04-27T17:54:13.495Z,4.20
2019-04-27T17:56:48.162Z,2.43
2019-04-27T17:59:16.486Z,3.03
2019-04-27T18:01:38.920Z,2.07
2019-04-27T18:04:08.887Z,2.93
2019-04-27T18:06:35.522Z,7.13
2019-04-27T18:09:03.648Z,2.50
2019-04-27T18:11:32.897Z,4.83
2019-04-27T18:14:00.670Z,4.00
2019-04-27T18:16:34.013Z,2.10
2019-04-27T18:19:18.386Z,2.40
2019-04-27T18:21:56.784Z,2.60
2019-04-27T18:24:25.051Z,5.80
2019-04-27T18:27:00.512Z,2.80
2019-04-27T18:29:27.635Z,3.47
2019-04-27T18:31:54.522Z,3.20
2019-04-27T18:34:21.519Z,3.23
2019-04-27T18:36:48.761Z,7.53
2019-04-27T18:39:16.031Z,1.70
2019-04-27T18:41:49.260Z,6.50
2019-04-27T18:44:12.347Z,2.63
2019-04-27T18:46:39.605Z,3.03
2019-04-27T18:49:14.216Z,4.00
2019-04-27T18:51:43.366Z,1.77
2019-04-27T18:54:10.624Z,5.10
2019-04-27T18:56:41.458Z,2.93
2019-04-27T18:59:08.418Z,2.83
2019-04-27T19:01:35.753Z,4.35
2019-04-27T19:04:03.279Z,4.33
2019-04-27T19:06:30.661Z,6.63
2019-04-27T19:08:59.077Z,1.90
2019-04-27T19:11:26.445Z,3.53
2019-04-27T19:13:53.718Z,3.50
2019-04-27T19:16:22.466Z,6.67
2019-04-27T19:18:49.793Z,3.83
2019-04-27T19:21:19.858Z,2.93
2019-04-27T19:23:46.026Z,4.60
2019-04-27T19:26:18.609Z,14.27
2019-04-27T19:29:04.606Z,2.30
2019-04-27T19:31:33.559Z,5.37
2019-04-27T19:34:01.071Z,8.63
2019-04-27T19:36:30.261Z,3.13
2019-04-27T19:38:58.374Z,5.10
2019-04-27T19:41:25.723Z,1.60
2019-04-27T19:43:52.971Z,5.77
2019-04-27T19:46:20.234Z,4.90
2019-04-27T19:48:47.470Z,7.97
2019-04-27T19:51:14.993Z,8.77
2019-04-27T19:53:42.237Z,2.80
2019-04-27T19:56:10.063Z,3.10
2019-04-27T19:58:41.836Z,2.27
2019-04-27T20:01:14.230Z,4.03
2019-04-27T20:03:44.506Z,3.13
2019-04-27T20:06:12.503Z,5.70
2019-04-27T20:08:50.191Z,5.30
2019-04-27T20:11:17.450Z,5.10
2019-04-27T20:13:44.959Z,7.53
2019-04-27T20:16:12.222Z,6.83
2019-04-27T20:18:41.124Z,5.60
2019-04-27T20:21:08.729Z,3.30
2019-04-27T20:23:35.983Z,4.07
2019-04-27T20:26:03.381Z,6.37
2019-04-27T20:28:31.420Z,12.73
2019-04-27T20:30:59.006Z,5.90
2019-04-27T20:33:26.503Z,3.37
2019-04-27T20:35:54.187Z,7.30
2019-04-27T20:38:21.537Z,13.63
2019-04-27T20:40:48.779Z,6.00
2019-04-27T20:43:16.026Z,5.67
2019-04-27T20:45:43.806Z,6.10
2019-04-27T20:48:11.274Z,9.70
2019-04-27T20:50:38.542Z,6.60
2019-04-27T20:53:13.645Z,10.27
2019-04-27T20:55:40.910Z,4.67
2019-04-27T20:58:08.190Z,8.97
2019-04-27T21:00:35.453Z,5.90
2019-04-27T21:03:04.347Z,7.67
2019-04-27T21:05:36.313Z,8.83
2019-04-27T21:08:06.855Z,8.47
2019-04-27T21:10:34.469Z,8.63
2019-04-27T21:13:01.717Z,6.10
2019-04-27T21:15:29.255Z,6.50
2019-04-27T21:17:56.498Z,8.83
2019-04-27T21:20:23.742Z,7.30
2019-04-27T21:22:53.234Z,10.97
2019-04-27T21:25:19.970Z,9.83
2019-04-27T21:27:47.322Z,12.40
2019-04-27T21:30:14.886Z,15.33
2019-04-27T21:32:42.149Z,6.10
2019-04-27T21:35:10.909Z,6.87
2019-04-27T21:37:38.312Z,8.93
2019-04-27T21:40:18.703Z,8.63
2019-04-27T21:42:46.139Z,8.47
2019-04-27T21:45:13.557Z,5.93
2019-04-27T21:47:41.379Z,6.37
2019-04-27T21:50:11.952Z,6.60
2019-04-27T21:52:46.920Z,6.70
2019-04-27T21:55:15.797Z,6.30
2019-04-27T21:57:43.412Z,13.97
2019-04-27T22:00:16.598Z,8.67
2019-04-27T22:02:44.190Z,11.83
2019-04-27T22:05:12.320Z,14.63
2019-04-27T22:07:39.587Z,13.10
2019-04-27T22:10:06.893Z,8.70
2019-04-27T22:12:34.398Z,15.47
2019-04-27T22:15:01.924Z,11.10
2019-04-27T22:17:29.186Z,9.53
2019-04-27T22:19:57.258Z,9.07
2019-04-27T22:22:26.423Z,7.23
2019-04-27T22:24:55.302Z,8.73
2019-04-27T22:27:22.566Z,8.97
2019-04-27T22:29:50.832Z,10.83
2019-04-27T22:32:19.063Z,8.43
2019-04-27T22:34:46.560Z,8.80
2019-04-27T22:37:13.827Z,8.07
2019-04-27T22:39:42.798Z,10.97
2019-04-27T22:42:23.079Z,7.70
2019-04-27T22:44:51.582Z,8.87
2019-04-27T22:47:18.926Z,11.30
2019-04-27T22:49:46.205Z,10.67
2019-04-27T22:52:13.707Z,8.83
2019-04-27T22:54:42.085Z,9.83
2019-04-27T22:57:11.365Z,8.97
2019-04-27T22:59:55.346Z,8.00
2019-04-27T23:02:24.511Z,8.70
2019-04-27T23:04:59.057Z,8.07
2019-04-27T23:07:26.391Z,8.77
2019-04-27T23:09:53.931Z,10.67
2019-04-27T23:12:23.027Z,9.17
2019-04-27T23:14:50.646Z,6.77
2019-04-27T23:17:31.773Z,13.77
2019-04-27T23:20:01.205Z,8.93
2019-04-27T23:22:28.314Z,9.83
2019-04-27T23:24:55.831Z,6.70
2019-04-27T23:27:23.074Z,10.40
2019-04-27T23:29:51.484Z,11.40
2019-04-27T23:32:23.692Z,9.37
2019-04-27T23:34:51.501Z,10.00
2019-04-27T23:37:18.914Z,15.47
2019-04-27T23:39:46.163Z,8.50
2019-04-27T23:42:13.426Z,14.67
2019-04-27T23:44:40.955Z,11.63
2019-04-27T23:47:08.470Z,8.97
2019-04-27T23:49:35.982Z,15.73
2019-04-27T23:52:04.889Z,10.93
2019-04-27T23:54:32.134Z,8.20
2019-04-27T23:56:59.406Z,10.07
2019-04-27T23:59:26.673Z,9.27
